sensor_id;sensor_type;location;lat;lon;timestamp;P1;durP1;ratioP1;P2;durP2;ratioP2
45254;SDS011;30989;52.078;21.014;2023-02-01T00:01:40;9.38;;;3.92;;
45254;SDS011;30989;52.078;21.014;2023-02-01T00:04:06;6.72;;;3.75;;
45254;SDS011;30989;52.078;21.014;2023-02-01T00:06:31;7.00;;;4.05;;
45254;SDS011;30989;52.078;21.014;2023-02-01T00:08:57;7.65;;;3.42;;
45254;SDS011;30989;52.078;21.014;2023-02-01T00:11:23;7.63;;;3.53;;
45254;SDS011;30989;52.078;21.014;2023-02-01T00:13:49;7.07;;;3.15;;
45254;SDS011;30989;52.078;21.014;2023-02-01T00:16:19;9.57;;;4.00;;
45254;SDS011;30989;52.078;21.014;2023-02-01T00:18:47;8.77;;;3.15;;
45254;SDS011;30989;52.078;21.014;2023-02-01T00:21:15;6.63;;;3.47;;
45254;SDS011;30989;52.078;21.014;2023-02-01T00:23:42;7.88;;;2.90;;
45254;SDS011;30989;52.078;21.014;2023-02-01T00:26:11;9.52;;;3.47;;
45254;SDS011;30989;52.078;21.014;2023-02-01T00:31:06;5.13;;;2.70;;
45254;SDS011;30989;52.078;21.014;2023-02-01T00:33:31;7.05;;;3.05;;
45254;SDS011;30989;52.078;21.014;2023-02-01T00:35:58;7.47;;;3.17;;
45254;SDS011;30989;52.078;21.014;2023-02-01T00:38:28;5.40;;;2.78;;
45254;SDS011;30989;52.078;21.014;2023-02-01T00:40:54;7.15;;;3.08;;
45254;SDS011;30989;52.078;21.014;2023-02-01T00:43:26;7.00;;;3.15;;
45254;SDS011;30989;52.078;21.014;2023-02-01T00:45:52;6.20;;;3.22;;
45254;SDS011;30989;52.078;21.014;2023-02-01T00:48:17;5.65;;;2.95;;
45254;SDS011;30989;52.078;21.014;2023-02-01T00:50:43;6.60;;;2.78;;
45254;SDS011;30989;52.078;21.014;2023-02-01T00:53:09;5.57;;;2.72;;
45254;SDS011;30989;52.078;21.014;2023-02-01T00:55:35;6.43;;;2.97;;
45254;SDS011;30989;52.078;21.014;2023-02-01T00:58:00;8.07;;;2.80;;
45254;SDS011;30989;52.078;21.014;2023-02-01T01:00:26;7.57;;;2.28;;
45254;SDS011;30989;52.078;21.014;2023-02-01T01:02:51;6.97;;;2.63;;
45254;SDS011;30989;52.078;21.014;2023-02-01T01:05:17;9.07;;;2.22;;
45254;SDS011;30989;52.078;21.014;2023-02-01T01:07:42;3.25;;;1.42;;
45254;SDS011;30989;52.078;21.014;2023-02-01T01:10:08;9.15;;;2.15;;
45254;SDS011;30989;52.078;21.014;2023-02-01T01:12:33;3.35;;;1.67;;
45254;SDS011;30989;52.078;21.014;2023-02-01T01:14:59;3.33;;;1.10;;
45254;SDS011;30989;52.078;21.014;2023-02-01T01:17:25;8.57;;;2.50;;
45254;SDS011;30989;52.078;21.014;2023-02-01T01:19:50;7.40;;;1.60;;
45254;SDS011;30989;52.078;21.014;2023-02-01T01:22:16;7.15;;;2.05;;
45254;SDS011;30989;52.078;21.014;2023-02-01T01:24:41;5.95;;;1.60;;
45254;SDS011;30989;52.078;21.014;2023-02-01T01:27:07;3.83;;;1.73;;
45254;SDS011;30989;52.078;21.014;2023-02-01T01:29:32;11.85;;;2.25;;
45254;SDS011;30989;52.078;21.014;2023-02-01T01:31:58;5.93;;;1.60;;
45254;SDS011;30989;52.078;21.014;2023-02-01T01:34:23;4.05;;;1.40;;
45254;SDS011;30989;52.078;21.014;2023-02-01T01:36:49;3.80;;;1.17;;
45254;SDS011;30989;52.078;21.014;2023-02-01T01:39:14;4.15;;;1.70;;
45254;SDS011;30989;52.078;21.014;2023-02-01T01:41:39;3.47;;;1.48;;
45254;SDS011;30989;52.078;21.014;2023-02-01T01:47:18;8.05;;;2.55;;
45254;SDS011;30989;52.078;21.014;2023-02-01T01:49:43;4.65;;;2.00;;
45254;SDS011;30989;52.078;21.014;2023-02-01T01:52:10;3.33;;;1.23;;
45254;SDS011;30989;52.078;21.014;2023-02-01T01:54:43;3.47;;;1.00;;
45254;SDS011;30989;52.078;21.014;2023-02-01T01:57:17;6.28;;;2.53;;
45254;SDS011;30989;52.078;21.014;2023-02-01T01:59:58;3.85;;;1.70;;
45254;SDS011;30989;52.078;21.014;2023-02-01T02:02:38;4.70;;;1.63;;
45254;SDS011;30989;52.078;21.014;2023-02-01T02:05:06;9.32;;;1.70;;
45254;SDS011;30989;52.078;21.014;2023-02-01T02:07:36;5.70;;;1.65;;
45254;SDS011;30989;52.078;21.014;2023-02-01T02:10:08;5.82;;;1.55;;
45254;SDS011;30989;52.078;21.014;2023-02-01T02:12:38;4.90;;;1.60;;
45254;SDS011;30989;52.078;21.014;2023-02-01T02:15:06;6.50;;;2.15;;
45254;SDS011;30989;52.078;21.014;2023-02-01T02:17:40;9.45;;;1.60;;
45254;SDS011;30989;52.078;21.014;2023-02-01T02:20:46;12.30;;;3.33;;
45254;SDS011;30989;52.078;21.014;2023-02-01T02:31:08;6.13;;;2.05;;
45254;SDS011;30989;52.078;21.014;2023-02-01T02:45:38;6.65;;;1.50;;
45254;SDS011;30989;52.078;21.014;2023-02-01T02:48:52;5.95;;;1.63;;
45254;SDS011;30989;52.078;21.014;2023-02-01T02:51:25;3.90;;;1.25;;
45254;SDS011;30989;52.078;21.014;2023-02-01T02:54:15;10.05;;;1.73;;
45254;SDS011;30989;52.078;21.014;2023-02-01T02:57:04;15.02;;;2.67;;
45254;SDS011;30989;52.078;21.014;2023-02-01T02:59:53;6.28;;;1.27;;
45254;SDS011;30989;52.078;21.014;2023-02-01T03:02:41;9.50;;;1.90;;
45254;SDS011;30989;52.078;21.014;2023-02-01T03:05:25;18.38;;;1.52;;
45254;SDS011;30989;52.078;21.014;2023-02-01T03:10:43;7.28;;;1.73;;
45254;SDS011;30989;52.078;21.014;2023-02-01T03:13:13;10.32;;;2.50;;
45254;SDS011;30989;52.078;21.014;2023-02-01T03:15:52;10.25;;;1.90;;
45254;SDS011;30989;52.078;21.014;2023-02-01T03:20:49;8.18;;;2.15;;
45254;SDS011;30989;52.078;21.014;2023-02-01T03:23:18;9.27;;;2.75;;
45254;SDS011;30989;52.078;21.014;2023-02-01T03:25:48;8.82;;;1.73;;
45254;SDS011;30989;52.078;21.014;2023-02-01T03:28:17;9.25;;;2.25;;
45254;SDS011;30989;52.078;21.014;2023-02-01T03:30:46;3.72;;;1.48;;
45254;SDS011;30989;52.078;21.014;2023-02-01T03:33:15;12.85;;;2.30;;
45254;SDS011;30989;52.078;21.014;2023-02-01T03:35:54;13.27;;;2.28;;
45254;SDS011;30989;52.078;21.014;2023-02-01T03:38:27;15.13;;;1.98;;
45254;SDS011;30989;52.078;21.014;2023-02-01T03:41:02;9.00;;;1.70;;
45254;SDS011;30989;52.078;21.014;2023-02-01T03:43:46;10.90;;;1.60;;
45254;SDS011;30989;52.078;21.014;2023-02-01T03:46:17;11.95;;;2.67;;
45254;SDS011;30989;52.078;21.014;2023-02-01T03:48:50;9.65;;;2.08;;
45254;SDS011;30989;52.078;21.014;2023-02-01T03:51:17;4.90;;;1.92;;
45254;SDS011;30989;52.078;21.014;2023-02-01T03:53:45;7.20;;;1.80;;
45254;SDS011;30989;52.078;21.014;2023-02-01T03:56:16;8.27;;;1.83;;
45254;SDS011;30989;52.078;21.014;2023-02-01T03:58:43;9.13;;;1.90;;
45254;SDS011;30989;52.078;21.014;2023-02-01T04:01:25;10.77;;;1.85;;
45254;SDS011;30989;52.078;21.014;2023-02-01T04:03:52;8.80;;;2.28;;
45254;SDS011;30989;52.078;21.014;2023-02-01T04:06:18;6.60;;;2.05;;
45254;SDS011;30989;52.078;21.014;2023-02-01T04:08:43;7.90;;;2.10;;
45254;SDS011;30989;52.078;21.014;2023-02-01T04:11:09;7.28;;;2.38;;
45254;SDS011;30989;52.078;21.014;2023-02-01T04:13:35;7.07;;;2.35;;
45254;SDS011;30989;52.078;21.014;2023-02-01T04:16:00;9.45;;;1.85;;
45254;SDS011;30989;52.078;21.014;2023-02-01T04:18:26;10.55;;;2.15;;
45254;SDS011;30989;52.078;21.014;2023-02-01T04:20:51;12.40;;;2.70;;
45254;SDS011;30989;52.078;21.014;2023-02-01T04:23:17;6.57;;;2.45;;
45254;SDS011;30989;52.078;21.014;2023-02-01T04:25:42;8.80;;;1.50;;
45254;SDS011;30989;52.078;21.014;2023-02-01T04:28:08;8.68;;;1.55;;
45254;SDS011;30989;52.078;21.014;2023-02-01T04:30:34;10.25;;;1.63;;
45254;SDS011;30989;52.078;21.014;2023-02-01T04:32:59;8.13;;;2.78;;
45254;SDS011;30989;52.078;21.014;2023-02-01T04:35:25;10.20;;;1.80;;
45254;SDS011;30989;52.078;21.014;2023-02-01T04:37:50;9.57;;;2.15;;
45254;SDS011;30989;52.078;21.014;2023-02-01T04:40:16;13.23;;;2.65;;
45254;SDS011;30989;52.078;21.014;2023-02-01T04:42:42;13.77;;;2.83;;
45254;SDS011;30989;52.078;21.014;2023-02-01T04:45:07;13.00;;;2.05;;
45254;SDS011;30989;52.078;21.014;2023-02-01T04:47:34;13.18;;;2.13;;
45254;SDS011;30989;52.078;21.014;2023-02-01T04:49:59;6.32;;;2.17;;
45254;SDS011;30989;52.078;21.014;2023-02-01T04:52:25;7.00;;;1.90;;
45254;SDS011;30989;52.078;21.014;2023-02-01T04:54:50;8.50;;;1.95;;
45254;SDS011;30989;52.078;21.014;2023-02-01T04:57:19;18.38;;;2.25;;
45254;SDS011;30989;52.078;21.014;2023-02-01T04:59:45;9.27;;;2.38;;
45254;SDS011;30989;52.078;21.014;2023-02-01T05:02:10;8.13;;;2.00;;
45254;SDS011;30989;52.078;21.014;2023-02-01T05:04:35;4.65;;;1.33;;
45254;SDS011;30989;52.078;21.014;2023-02-01T05:07:01;9.75;;;1.60;;
45254;SDS011;30989;52.078;21.014;2023-02-01T05:09:26;12.13;;;1.98;;
45254;SDS011;30989;52.078;21.014;2023-02-01T05:11:52;9.95;;;2.13;;
45254;SDS011;30989;52.078;21.014;2023-02-01T05:14:49;11.73;;;2.17;;
45254;SDS011;30989;52.078;21.014;2023-02-01T05:17:15;7.50;;;1.92;;
45254;SDS011;30989;52.078;21.014;2023-02-01T05:19:40;7.25;;;1.35;;
45254;SDS011;30989;52.078;21.014;2023-02-01T05:22:06;13.98;;;2.35;;
45254;SDS011;30989;52.078;21.014;2023-02-01T05:24:32;9.52;;;3.10;;
45254;SDS011;30989;52.078;21.014;2023-02-01T05:26:57;12.65;;;1.83;;
45254;SDS011;30989;52.078;21.014;2023-02-01T05:29:23;7.72;;;1.42;;
45254;SDS011;30989;52.078;21.014;2023-02-01T05:31:48;7.43;;;1.75;;
45254;SDS011;30989;52.078;21.014;2023-02-01T05:34:14;7.45;;;2.60;;
45254;SDS011;30989;52.078;21.014;2023-02-01T05:36:40;5.07;;;1.42;;
45254;SDS011;30989;52.078;21.014;2023-02-01T05:39:06;9.63;;;1.98;;
45254;SDS011;30989;52.078;21.014;2023-02-01T05:41:31;10.07;;;1.92;;
45254;SDS011;30989;52.078;21.014;2023-02-01T05:43:57;12.50;;;2.35;;
45254;SDS011;30989;52.078;21.014;2023-02-01T05:46:22;6.80;;;1.88;;
45254;SDS011;30989;52.078;21.014;2023-02-01T05:48:48;9.15;;;2.10;;
45254;SDS011;30989;52.078;21.014;2023-02-01T05:51:13;8.35;;;1.75;;
45254;SDS011;30989;52.078;21.014;2023-02-01T05:53:39;6.68;;;1.35;;
45254;SDS011;30989;52.078;21.014;2023-02-01T05:56:04;8.93;;;1.48;;
45254;SDS011;30989;52.078;21.014;2023-02-01T05:58:30;9.77;;;1.73;;
45254;SDS011;30989;52.078;21.014;2023-02-01T06:00:56;10.65;;;3.05;;
45254;SDS011;30989;52.078;21.014;2023-02-01T06:03:24;6.55;;;2.15;;
45254;SDS011;30989;52.078;21.014;2023-02-01T06:05:50;4.82;;;1.15;;
45254;SDS011;30989;52.078;21.014;2023-02-01T06:08:15;7.07;;;2.40;;
45254;SDS011;30989;52.078;21.014;2023-02-01T06:10:42;11.95;;;1.83;;
45254;SDS011;30989;52.078;21.014;2023-02-01T06:13:07;13.55;;;1.92;;
45254;SDS011;30989;52.078;21.014;2023-02-01T06:15:33;10.52;;;1.65;;
45254;SDS011;30989;52.078;21.014;2023-02-01T06:17:59;9.88;;;2.13;;
45254;SDS011;30989;52.078;21.014;2023-02-01T06:20:24;9.18;;;1.65;;
45254;SDS011;30989;52.078;21.014;2023-02-01T06:22:50;8.65;;;1.60;;
45254;SDS011;30989;52.078;21.014;2023-02-01T06:25:15;12.77;;;3.20;;
45254;SDS011;30989;52.078;21.014;2023-02-01T06:27:42;14.05;;;3.15;;
45254;SDS011;30989;52.078;21.014;2023-02-01T06:30:10;10.32;;;2.10;;
45254;SDS011;30989;52.078;21.014;2023-02-01T06:32:39;9.85;;;1.85;;
45254;SDS011;30989;52.078;21.014;2023-02-01T06:35:06;9.00;;;1.63;;
45254;SDS011;30989;52.078;21.014;2023-02-01T06:37:33;8.90;;;1.65;;
45254;SDS011;30989;52.078;21.014;2023-02-01T06:39:59;12.63;;;2.83;;
45254;SDS011;30989;52.078;21.014;2023-02-01T06:42:25;4.88;;;1.60;;
45254;SDS011;30989;52.078;21.014;2023-02-01T06:44:50;9.80;;;1.70;;
45254;SDS011;30989;52.078;21.014;2023-02-01T06:47:16;9.00;;;1.55;;
45254;SDS011;30989;52.078;21.014;2023-02-01T06:49:41;7.45;;;1.83;;
45254;SDS011;30989;52.078;21.014;2023-02-01T06:52:07;10.38;;;1.83;;
45254;SDS011;30989;52.078;21.014;2023-02-01T06:54:32;9.60;;;2.33;;
45254;SDS011;30989;52.078;21.014;2023-02-01T06:56:59;7.90;;;1.40;;
45254;SDS011;30989;52.078;21.014;2023-02-01T06:59:24;8.35;;;1.52;;
45254;SDS011;30989;52.078;21.014;2023-02-01T07:01:50;6.72;;;2.28;;
45254;SDS011;30989;52.078;21.014;2023-02-01T07:04:15;12.65;;;2.05;;
45254;SDS011;30989;52.078;21.014;2023-02-01T07:06:41;9.15;;;2.10;;
45254;SDS011;30989;52.078;21.014;2023-02-01T07:09:07;7.38;;;1.98;;
45254;SDS011;30989;52.078;21.014;2023-02-01T07:11:33;6.07;;;1.88;;
45254;SDS011;30989;52.078;21.014;2023-02-01T07:13:59;6.43;;;1.83;;
45254;SDS011;30989;52.078;21.014;2023-02-01T07:16:24;6.88;;;1.30;;
45254;SDS011;30989;52.078;21.014;2023-02-01T07:18:50;8.13;;;2.47;;
45254;SDS011;30989;52.078;21.014;2023-02-01T07:21:17;7.10;;;1.48;;
45254;SDS011;30989;52.078;21.014;2023-02-01T07:23:43;15.43;;;1.80;;
45254;SDS011;30989;52.078;21.014;2023-02-01T07:26:09;10.80;;;2.15;;
45254;SDS011;30989;52.078;21.014;2023-02-01T07:28:39;7.63;;;2.55;;
45254;SDS011;30989;52.078;21.014;2023-02-01T07:31:06;10.70;;;2.65;;
45254;SDS011;30989;52.078;21.014;2023-02-01T07:33:36;8.98;;;1.23;;
45254;SDS011;30989;52.078;21.014;2023-02-01T07:36:03;4.30;;;1.60;;
45254;SDS011;30989;52.078;21.014;2023-02-01T07:38:31;12.80;;;2.55;;
45254;SDS011;30989;52.078;21.014;2023-02-01T07:40:59;9.45;;;2.30;;
45254;SDS011;30989;52.078;21.014;2023-02-01T07:43:27;10.57;;;2.17;;
45254;SDS011;30989;52.078;21.014;2023-02-01T07:45:53;8.73;;;1.60;;
45254;SDS011;30989;52.078;21.014;2023-02-01T07:48:19;5.28;;;1.80;;
45254;SDS011;30989;52.078;21.014;2023-02-01T07:50:52;5.47;;;2.53;;
45254;SDS011;30989;52.078;21.014;2023-02-01T07:53:34;10.23;;;2.25;;
45254;SDS011;30989;52.078;21.014;2023-02-01T07:56:00;9.77;;;1.85;;
45254;SDS011;30989;52.078;21.014;2023-02-01T07:58:27;14.07;;;2.55;;
45254;SDS011;30989;52.078;21.014;2023-02-01T08:00:52;12.77;;;3.30;;
45254;SDS011;30989;52.078;21.014;2023-02-01T08:03:37;4.72;;;1.73;;
45254;SDS011;30989;52.078;21.014;2023-02-01T08:06:03;12.57;;;1.70;;
45254;SDS011;30989;52.078;21.014;2023-02-01T08:08:29;13.15;;;2.22;;
45254;SDS011;30989;52.078;21.014;2023-02-01T08:10:58;6.15;;;1.50;;
45254;SDS011;30989;52.078;21.014;2023-02-01T08:13:26;9.50;;;2.05;;
45254;SDS011;30989;52.078;21.014;2023-02-01T08:15:52;7.15;;;1.88;;
45254;SDS011;30989;52.078;21.014;2023-02-01T08:18:22;7.25;;;1.35;;
45254;SDS011;30989;52.078;21.014;2023-02-01T08:20:47;10.50;;;2.35;;
45254;SDS011;30989;52.078;21.014;2023-02-01T08:23:12;10.40;;;2.40;;
45254;SDS011;30989;52.078;21.014;2023-02-01T08:25:38;8.60;;;1.95;;
45254;SDS011;30989;52.078;21.014;2023-02-01T08:28:04;13.48;;;2.30;;
45254;SDS011;30989;52.078;21.014;2023-02-01T08:30:32;10.32;;;2.70;;
45254;SDS011;30989;52.078;21.014;2023-02-01T08:32:58;10.27;;;2.50;;
45254;SDS011;30989;52.078;21.014;2023-02-01T08:35:23;8.93;;;1.67;;
45254;SDS011;30989;52.078;21.014;2023-02-01T08:37:49;10.68;;;2.28;;
45254;SDS011;30989;52.078;21.014;2023-02-01T08:40:15;10.43;;;2.28;;
45254;SDS011;30989;52.078;21.014;2023-02-01T08:42:41;7.10;;;1.60;;
45254;SDS011;30989;52.078;21.014;2023-02-01T08:45:26;7.07;;;1.83;;
45254;SDS011;30989;52.078;21.014;2023-02-01T08:47:54;8.93;;;2.45;;
45254;SDS011;30989;52.078;21.014;2023-02-01T08:50:20;9.65;;;1.70;;
45254;SDS011;30989;52.078;21.014;2023-02-01T08:52:47;11.65;;;3.00;;
45254;SDS011;30989;52.078;21.014;2023-02-01T08:55:13;5.50;;;1.30;;
45254;SDS011;30989;52.078;21.014;2023-02-01T08:57:39;6.95;;;2.22;;
45254;SDS011;30989;52.078;21.014;2023-02-01T09:00:07;7.07;;;1.80;;
45254;SDS011;30989;52.078;21.014;2023-02-01T09:02:36;10.68;;;1.77;;
45254;SDS011;30989;52.078;21.014;2023-02-01T09:05:01;13.52;;;2.28;;
45254;SDS011;30989;52.078;21.014;2023-02-01T09:07:28;9.02;;;2.25;;
45254;SDS011;30989;52.078;21.014;2023-02-01T09:09:54;10.48;;;2.30;;
45254;SDS011;30989;52.078;21.014;2023-02-01T09:12:21;6.25;;;2.00;;
45254;SDS011;30989;52.078;21.014;2023-02-01T09:14:47;8.60;;;2.38;;
45254;SDS011;30989;52.078;21.014;2023-02-01T09:17:12;9.65;;;2.58;;
45254;SDS011;30989;52.078;21.014;2023-02-01T09:19:39;9.82;;;2.90;;
45254;SDS011;30989;52.078;21.014;2023-02-01T09:22:05;13.10;;;2.85;;
45254;SDS011;30989;52.078;21.014;2023-02-01T09:24:30;8.75;;;2.65;;
45254;SDS011;30989;52.078;21.014;2023-02-01T09:26:56;11.80;;;2.65;;
45254;SDS011;30989;52.078;21.014;2023-02-01T09:29:21;7.28;;;2.20;;
45254;SDS011;30989;52.078;21.014;2023-02-01T09:31:47;12.45;;;2.47;;
45254;SDS011;30989;52.078;21.014;2023-02-01T09:34:12;9.00;;;3.15;;
45254;SDS011;30989;52.078;21.014;2023-02-01T09:36:37;11.98;;;3.28;;
45254;SDS011;30989;52.078;21.014;2023-02-01T09:39:03;5.85;;;2.58;;
45254;SDS011;30989;52.078;21.014;2023-02-01T09:47:29;13.43;;;3.40;;
45254;SDS011;30989;52.078;21.014;2023-02-01T09:50:00;10.18;;;2.78;;
45254;SDS011;30989;52.078;21.014;2023-02-01T09:52:31;13.18;;;3.05;;
45254;SDS011;30989;52.078;21.014;2023-02-01T09:55:10;10.43;;;3.38;;
45254;SDS011;30989;52.078;21.014;2023-02-01T09:57:49;14.57;;;3.25;;
45254;SDS011;30989;52.078;21.014;2023-02-01T10:00:25;10.23;;;2.50;;
45254;SDS011;30989;52.078;21.014;2023-02-01T10:02:54;11.45;;;2.67;;
45254;SDS011;30989;52.078;21.014;2023-02-01T10:05:25;12.90;;;2.10;;
45254;SDS011;30989;52.078;21.014;2023-02-01T10:08:31;14.43;;;3.38;;
45254;SDS011;30989;52.078;21.014;2023-02-01T10:11:22;16.55;;;2.67;;
45254;SDS011;30989;52.078;21.014;2023-02-01T10:14:16;9.80;;;2.67;;
45254;SDS011;30989;52.078;21.014;2023-02-01T10:17:02;13.55;;;2.85;;
45254;SDS011;30989;52.078;21.014;2023-02-01T10:19:47;7.72;;;2.63;;
45254;SDS011;30989;52.078;21.014;2023-02-01T10:22:37;9.88;;;2.75;;
45254;SDS011;30989;52.078;21.014;2023-02-01T10:27:48;10.32;;;2.58;;
45254;SDS011;30989;52.078;21.014;2023-02-01T10:30:23;9.45;;;2.92;;
45254;SDS011;30989;52.078;21.014;2023-02-01T10:32:56;15.35;;;3.58;;
45254;SDS011;30989;52.078;21.014;2023-02-01T10:35:34;11.48;;;2.90;;
45254;SDS011;30989;52.078;21.014;2023-02-01T10:38:01;8.95;;;2.65;;
45254;SDS011;30989;52.078;21.014;2023-02-01T10:40:30;8.90;;;2.00;;
45254;SDS011;30989;52.078;21.014;2023-02-01T10:43:00;16.20;;;3.30;;
45254;SDS011;30989;52.078;21.014;2023-02-01T10:45:28;10.00;;;2.53;;
45254;SDS011;30989;52.078;21.014;2023-02-01T10:47:55;8.00;;;2.55;;
45254;SDS011;30989;52.078;21.014;2023-02-01T10:53:24;10.27;;;2.63;;
45254;SDS011;30989;52.078;21.014;2023-02-01T10:55:56;12.57;;;3.35;;
45254;SDS011;30989;52.078;21.014;2023-02-01T10:58:27;11.60;;;3.55;;
45254;SDS011;30989;52.078;21.014;2023-02-01T11:00:57;14.63;;;2.92;;
45254;SDS011;30989;52.078;21.014;2023-02-01T11:06:00;15.00;;;2.95;;
45254;SDS011;30989;52.078;21.014;2023-02-01T11:08:27;12.88;;;2.53;;
45254;SDS011;30989;52.078;21.014;2023-02-01T11:10:57;15.52;;;2.95;;
45254;SDS011;30989;52.078;21.014;2023-02-01T11:13:32;9.50;;;2.42;;
45254;SDS011;30989;52.078;21.014;2023-02-01T11:16:03;10.80;;;3.05;;
45254;SDS011;30989;52.078;21.014;2023-02-01T11:18:31;12.43;;;2.90;;
45254;SDS011;30989;52.078;21.014;2023-02-01T11:21:00;6.63;;;2.03;;
45254;SDS011;30989;52.078;21.014;2023-02-01T11:23:26;15.25;;;3.70;;
45254;SDS011;30989;52.078;21.014;2023-02-01T11:25:58;12.80;;;2.38;;
45254;SDS011;30989;52.078;21.014;2023-02-01T11:28:35;7.97;;;2.50;;
45254;SDS011;30989;52.078;21.014;2023-02-01T11:31:05;9.65;;;2.30;;
45254;SDS011;30989;52.078;21.014;2023-02-01T11:33:35;6.53;;;2.30;;
45254;SDS011;30989;52.078;21.014;2023-02-01T11:36:13;6.45;;;2.20;;
45254;SDS011;30989;52.078;21.014;2023-02-01T11:38:45;12.43;;;3.33;;
45254;SDS011;30989;52.078;21.014;2023-02-01T11:41:26;13.50;;;3.25;;
45254;SDS011;30989;52.078;21.014;2023-02-01T11:43:54;13.00;;;2.92;;
45254;SDS011;30989;52.078;21.014;2023-02-01T11:46:23;13.07;;;2.60;;
45254;SDS011;30989;52.078;21.014;2023-02-01T11:48:55;10.50;;;2.28;;
45254;SDS011;30989;52.078;21.014;2023-02-01T11:59:24;12.25;;;3.08;;
45254;SDS011;30989;52.078;21.014;2023-02-01T12:10:51;13.65;;;3.05;;
45254;SDS011;30989;52.078;21.014;2023-02-01T12:32:53;18.05;;;4.38;;
45254;SDS011;30989;52.078;21.014;2023-02-01T12:44:02;13.88;;;3.08;;
45254;SDS011;30989;52.078;21.014;2023-02-01T12:46:33;10.30;;;2.67;;
45254;SDS011;30989;52.078;21.014;2023-02-01T12:49:11;11.43;;;2.95;;
45254;SDS011;30989;52.078;21.014;2023-02-01T12:51:43;12.80;;;3.03;;
45254;SDS011;30989;52.078;21.014;2023-02-01T12:54:23;11.40;;;2.72;;
45254;SDS011;30989;52.078;21.014;2023-02-01T12:57:00;11.52;;;2.75;;
45254;SDS011;30989;52.078;21.014;2023-02-01T12:59:41;9.88;;;2.70;;
45254;SDS011;30989;52.078;21.014;2023-02-01T13:05:13;16.73;;;3.30;;
45254;SDS011;30989;52.078;21.014;2023-02-01T13:07:47;17.58;;;3.58;;
45254;SDS011;30989;52.078;21.014;2023-02-01T13:10:34;12.90;;;4.30;;
45254;SDS011;30989;52.078;21.014;2023-02-01T13:13:07;15.15;;;3.05;;
45254;SDS011;30989;52.078;21.014;2023-02-01T13:18:37;18.67;;;3.88;;
45254;SDS011;30989;52.078;21.014;2023-02-01T13:21:12;14.13;;;3.47;;
45254;SDS011;30989;52.078;21.014;2023-02-01T13:23:43;13.25;;;3.38;;
45254;SDS011;30989;52.078;21.014;2023-02-01T13:26:12;16.30;;;3.05;;
45254;SDS011;30989;52.078;21.014;2023-02-01T13:28:53;15.23;;;3.83;;
45254;SDS011;30989;52.078;21.014;2023-02-01T13:31:42;19.38;;;3.92;;
45254;SDS011;30989;52.078;21.014;2023-02-01T13:34:56;16.70;;;3.35;;
45254;SDS011;30989;52.078;21.014;2023-02-01T13:43:12;12.65;;;3.55;;
45254;SDS011;30989;52.078;21.014;2023-02-01T13:45:42;16.67;;;4.40;;
45254;SDS011;30989;52.078;21.014;2023-02-01T13:50:48;16.65;;;2.97;;
45254;SDS011;30989;52.078;21.014;2023-02-01T13:53:18;16.25;;;3.58;;
45254;SDS011;30989;52.078;21.014;2023-02-01T13:58:37;13.70;;;3.53;;
45254;SDS011;30989;52.078;21.014;2023-02-01T14:03:47;15.80;;;2.90;;
45254;SDS011;30989;52.078;21.014;2023-02-01T14:11:48;11.43;;;2.50;;
45254;SDS011;30989;52.078;21.014;2023-02-01T14:17:29;14.90;;;3.03;;
45254;SDS011;30989;52.078;21.014;2023-02-01T14:19:35;15.02;;;3.45;;
45254;SDS011;30989;52.078;21.014;2023-02-01T14:22:01;13.57;;;3.80;;
45254;SDS011;30989;52.078;21.014;2023-02-01T14:24:58;12.98;;;4.18;;
45254;SDS011;30989;52.078;21.014;2023-02-01T14:27:24;9.35;;;3.35;;
45254;SDS011;30989;52.078;21.014;2023-02-01T14:29:55;13.45;;;4.25;;
45254;SDS011;30989;52.078;21.014;2023-02-01T14:32:33;10.73;;;3.92;;
45254;SDS011;30989;52.078;21.014;2023-02-01T14:35:04;8.98;;;2.42;;
45254;SDS011;30989;52.078;21.014;2023-02-01T14:37:36;8.55;;;3.05;;
45254;SDS011;30989;52.078;21.014;2023-02-01T14:47:47;8.13;;;2.58;;
45254;SDS011;30989;52.078;21.014;2023-02-01T14:53:03;10.90;;;2.22;;
45254;SDS011;30989;52.078;21.014;2023-02-01T14:55:41;8.55;;;2.78;;
45254;SDS011;30989;52.078;21.014;2023-02-01T15:00:52;8.77;;;3.08;;
45254;SDS011;30989;52.078;21.014;2023-02-01T15:05:57;8.50;;;1.98;;
45254;SDS011;30989;52.078;21.014;2023-02-01T15:08:30;6.40;;;2.20;;
45254;SDS011;30989;52.078;21.014;2023-02-01T15:10:58;7.57;;;2.70;;
45254;SDS011;30989;52.078;21.014;2023-02-01T15:13:27;7.82;;;3.17;;
45254;SDS011;30989;52.078;21.014;2023-02-01T15:16:04;12.70;;;3.10;;
45254;SDS011;30989;52.078;21.014;2023-02-01T15:18:37;10.52;;;2.65;;
45254;SDS011;30989;52.078;21.014;2023-02-01T15:21:04;7.68;;;2.88;;
45254;SDS011;30989;52.078;21.014;2023-02-01T15:23:31;7.20;;;2.40;;
45254;SDS011;30989;52.078;21.014;2023-02-01T15:25:57;9.68;;;2.90;;
45254;SDS011;30989;52.078;21.014;2023-02-01T15:28:24;9.65;;;2.30;;
45254;SDS011;30989;52.078;21.014;2023-02-01T15:30:58;10.68;;;3.47;;
45254;SDS011;30989;52.078;21.014;2023-02-01T15:33:29;7.80;;;2.15;;
45254;SDS011;30989;52.078;21.014;2023-02-01T15:38:32;8.57;;;2.40;;
45254;SDS011;30989;52.078;21.014;2023-02-01T15:41:07;10.48;;;2.97;;
45254;SDS011;30989;52.078;21.014;2023-02-01T15:43:47;7.05;;;2.67;;
45254;SDS011;30989;52.078;21.014;2023-02-01T15:46:21;13.68;;;4.07;;
45254;SDS011;30989;52.078;21.014;2023-02-01T15:48:53;9.77;;;3.25;;
45254;SDS011;30989;52.078;21.014;2023-02-01T15:51:20;10.40;;;2.65;;
45254;SDS011;30989;52.078;21.014;2023-02-01T15:53:51;8.68;;;2.78;;
45254;SDS011;30989;52.078;21.014;2023-02-01T15:56:23;8.88;;;2.50;;
45254;SDS011;30989;52.078;21.014;2023-02-01T15:58:53;11.00;;;2.72;;
45254;SDS011;30989;52.078;21.014;2023-02-01T16:01:21;8.55;;;3.15;;
45254;SDS011;30989;52.078;21.014;2023-02-01T16:03:47;12.40;;;3.63;;
45254;SDS011;30989;52.078;21.014;2023-02-01T16:08:48;7.35;;;2.65;;
45254;SDS011;30989;52.078;21.014;2023-02-01T16:13:53;6.95;;;2.90;;
45254;SDS011;30989;52.078;21.014;2023-02-01T16:16:21;6.45;;;2.40;;
45254;SDS011;30989;52.078;21.014;2023-02-01T16:18:47;7.68;;;2.63;;
45254;SDS011;30989;52.078;21.014;2023-02-01T16:21:12;7.45;;;2.45;;
45254;SDS011;30989;52.078;21.014;2023-02-01T16:23:38;7.65;;;2.20;;
45254;SDS011;30989;52.078;21.014;2023-02-01T16:26:04;9.95;;;2.40;;
45254;SDS011;30989;52.078;21.014;2023-02-01T16:28:30;9.45;;;2.80;;
45254;SDS011;30989;52.078;21.014;2023-02-01T16:30:58;9.20;;;2.75;;
45254;SDS011;30989;52.078;21.014;2023-02-01T16:33:25;5.15;;;2.45;;
45254;SDS011;30989;52.078;21.014;2023-02-01T16:35:51;7.20;;;2.95;;
45254;SDS011;30989;52.078;21.014;2023-02-01T16:38:18;8.70;;;2.85;;
45254;SDS011;30989;52.078;21.014;2023-02-01T16:40:47;6.93;;;2.85;;
45254;SDS011;30989;52.078;21.014;2023-02-01T16:43:15;8.32;;;2.60;;
45254;SDS011;30989;52.078;21.014;2023-02-01T16:45:46;6.50;;;2.38;;
45254;SDS011;30989;52.078;21.014;2023-02-01T16:48:18;5.32;;;2.40;;
45254;SDS011;30989;52.078;21.014;2023-02-01T16:50:47;6.22;;;2.53;;
45254;SDS011;30989;52.078;21.014;2023-02-01T16:53:16;14.02;;;2.70;;
45254;SDS011;30989;52.078;21.014;2023-02-01T16:55:43;8.48;;;3.15;;
45254;SDS011;30989;52.078;21.014;2023-02-01T16:58:09;8.02;;;2.58;;
45254;SDS011;30989;52.078;21.014;2023-02-01T17:00:35;10.82;;;3.47;;
45254;SDS011;30989;52.078;21.014;2023-02-01T17:03:03;7.05;;;3.03;;
45254;SDS011;30989;52.078;21.014;2023-02-01T17:05:33;8.55;;;2.70;;